UAL2226 KORD-KBUF
Flight info
| Callsign | UAL2226 |
|---|---|
| Flight time | 1h 11m |
| Altitude | 39000 |
| Route | DUFEE ELX HAAKK DOXXY SOSIC WTEVR DOBIE DKK |
| Aircraft | A319/M-SDE3FGHIRWY/LB1 |
Departure
| Time | 2026-05-05 21:37 |
|---|---|
| Airport | Chicago O'Hare International Airport (KORD) |
Arrival
| Time | 2026-05-05 22:48 |
|---|---|
| Airport | Buffalo Niagara International Airport (KBUF) |
| Time | Latitude | Longitude | Altitude | Speed | Heading |
|---|---|---|---|---|---|
| 2026-05-05 19:56 | 41.98203 | -87.90514 | 675 ft | 0 kts | 179° |
| 2026-05-05 21:22 | 41.98208 | -87.90514 | 675 ft | 2 kts | 179° |
| 2026-05-05 21:22 | 41.98223 | -87.90515 | 675 ft | 2 kts | 179° |
| 2026-05-05 21:22 | 41.98239 | -87.90515 | 675 ft | 2 kts | 179° |
| 2026-05-05 21:23 | 41.98254 | -87.90515 | 676 ft | 2 kts | 179° |
| 2026-05-05 21:23 | 41.98267 | -87.90515 | 675 ft | 0 kts | 179° |
| 2026-05-05 21:23 | 41.98278 | -87.90517 | 676 ft | 2 kts | 148° |
| 2026-05-05 21:23 | 41.98288 | -87.90533 | 675 ft | 1 kts | 102° |
| 2026-05-05 21:24 | 41.98288 | -87.90542 | 676 ft | 1 kts | 83° |
| 2026-05-05 21:24 | 41.98288 | -87.90547 | 676 ft | 0 kts | 89° |
| 2026-05-05 21:27 | 41.98288 | -87.90546 | 675 ft | 1 kts | 89° |
| 2026-05-05 21:27 | 41.98288 | -87.90488 | 675 ft | 11 kts | 90° |
| 2026-05-05 21:28 | 41.98287 | -87.90346 | 675 ft | 17 kts | 90° |
| 2026-05-05 21:28 | 41.98287 | -87.90175 | 675 ft | 19 kts | 90° |
| 2026-05-05 21:28 | 41.98287 | -87.89987 | 675 ft | 20 kts | 90° |
| 2026-05-05 21:28 | 41.98287 | -87.89788 | 675 ft | 22 kts | 90° |
| 2026-05-05 21:29 | 41.98287 | -87.89613 | 675 ft | 11 kts | 90° |
| 2026-05-05 21:29 | 41.98259 | -87.89542 | 675 ft | 10 kts | 134° |
| 2026-05-05 21:29 | 41.98202 | -87.89465 | 675 ft | 13 kts | 134° |
| 2026-05-05 21:29 | 41.98133 | -87.89371 | 675 ft | 15 kts | 134° |
| 2026-05-05 21:30 | 41.98067 | -87.89282 | 675 ft | 11 kts | 140° |
| 2026-05-05 21:30 | 41.98013 | -87.89254 | 675 ft | 8 kts | 204° |
| 2026-05-05 21:30 | 41.97964 | -87.89323 | 675 ft | 11 kts | 230° |
| 2026-05-05 21:30 | 41.97905 | -87.89414 | 675 ft | 13 kts | 213° |
| 2026-05-05 21:31 | 41.97804 | -87.89431 | 675 ft | 16 kts | 180° |
| 2026-05-05 21:31 | 41.97693 | -87.89431 | 675 ft | 13 kts | 180° |
| 2026-05-05 21:31 | 41.97604 | -87.89431 | 675 ft | 12 kts | 180° |
| 2026-05-05 21:31 | 41.97506 | -87.89431 | 675 ft | 15 kts | 180° |
| 2026-05-05 21:32 | 41.97393 | -87.89431 | 675 ft | 16 kts | 180° |
| 2026-05-05 21:32 | 41.97315 | -87.89451 | 675 ft | 12 kts | 209° |
| 2026-05-05 21:32 | 41.97259 | -87.89549 | 675 ft | 14 kts | 243° |
| 2026-05-05 21:32 | 41.97211 | -87.89681 | 675 ft | 16 kts | 243° |
| 2026-05-05 21:33 | 41.97159 | -87.89816 | 675 ft | 13 kts | 244° |
| 2026-05-05 21:33 | 41.97137 | -87.89947 | 675 ft | 15 kts | 269° |
| 2026-05-05 21:33 | 41.97136 | -87.90083 | 675 ft | 11 kts | 270° |
| 2026-05-05 21:33 | 41.97109 | -87.90134 | 675 ft | 8 kts | 186° |
| 2026-05-05 21:34 | 41.97051 | -87.90118 | 675 ft | 8 kts | 127° |
| 2026-05-05 21:34 | 41.97041 | -87.90021 | 675 ft | 11 kts | 89° |
| 2026-05-05 21:34 | 41.97042 | -87.89896 | 675 ft | 14 kts | 90° |
| 2026-05-05 21:34 | 41.97042 | -87.89750 | 675 ft | 16 kts | 90° |
| 2026-05-05 21:35 | 41.97030 | -87.89629 | 675 ft | 9 kts | 112° |
| 2026-05-05 21:35 | 41.97004 | -87.89570 | 675 ft | 5 kts | 141° |
| 2026-05-05 21:35 | 41.96952 | -87.89557 | 675 ft | 9 kts | 177° |
| 2026-05-05 21:35 | 41.96909 | -87.89565 | 675 ft | 5 kts | 234° |
| 2026-05-05 21:36 | 41.96905 | -87.89627 | 675 ft | 6 kts | 270° |
| 2026-05-05 21:36 | 41.96905 | -87.89671 | 675 ft | 8 kts | 270° |
| 2026-05-05 21:36 | 41.96905 | -87.90053 | 676 ft | 84 kts | 270° |
| 2026-05-05 21:36 | 41.96903 | -87.91216 | 688 ft | 158 kts | 269° |
| 2026-05-05 21:37 | 41.96914 | -87.92744 | 1414 ft | 167 kts | 271° |
| 2026-05-05 21:37 | 41.96967 | -87.94267 | 2393 ft | 169 kts | 280° |
| 2026-05-05 21:37 | 41.97535 | -87.95654 | 3219 ft | 183 kts | 320° |
| 2026-05-05 21:37 | 41.98719 | -87.96279 | 3874 ft | 194 kts | 359° |
| 2026-05-05 21:38 | 41.99995 | -87.95732 | 4377 ft | 209 kts | 38° |
| 2026-05-05 21:38 | 42.00782 | -87.94091 | 4901 ft | 224 kts | 76° |
| 2026-05-05 21:38 | 42.01088 | -87.91950 | 5499 ft | 242 kts | 81° |
| 2026-05-05 21:38 | 42.01339 | -87.89668 | 6073 ft | 260 kts | 82° |
| 2026-05-05 21:39 | 42.01614 | -87.87183 | 6745 ft | 275 kts | 81° |
| 2026-05-05 21:39 | 42.01906 | -87.84642 | 7652 ft | 279 kts | 81° |
| 2026-05-05 21:39 | 42.02209 | -87.82079 | 8562 ft | 282 kts | 81° |
| 2026-05-05 21:39 | 42.02519 | -87.79491 | 9424 ft | 286 kts | 81° |
| 2026-05-05 21:40 | 42.02840 | -87.76834 | 10273 ft | 289 kts | 81° |
| 2026-05-05 21:40 | 42.03170 | -87.74120 | 10905 ft | 301 kts | 81° |
| 2026-05-05 21:40 | 42.03516 | -87.71274 | 11326 ft | 319 kts | 81° |
| 2026-05-05 21:40 | 42.03879 | -87.68300 | 11984 ft | 328 kts | 81° |
| 2026-05-05 21:41 | 42.04247 | -87.65287 | 12802 ft | 330 kts | 81° |
| 2026-05-05 21:41 | 42.04617 | -87.62241 | 13577 ft | 334 kts | 81° |
| 2026-05-05 21:41 | 42.04991 | -87.59155 | 14317 ft | 338 kts | 81° |
| 2026-05-05 21:41 | 42.05370 | -87.56016 | 15041 ft | 341 kts | 81° |
| 2026-05-05 21:42 | 42.05750 | -87.52863 | 15739 ft | 345 kts | 81° |
| 2026-05-05 21:42 | 42.06137 | -87.49644 | 16424 ft | 348 kts | 81° |
| 2026-05-05 21:42 | 42.06522 | -87.46436 | 17081 ft | 352 kts | 81° |
| 2026-05-05 21:42 | 42.06910 | -87.43185 | 17720 ft | 355 kts | 81° |
| 2026-05-05 21:43 | 42.07303 | -87.39896 | 18344 ft | 359 kts | 81° |
| 2026-05-05 21:43 | 42.07698 | -87.36575 | 18952 ft | 362 kts | 81° |
| 2026-05-05 21:43 | 42.08097 | -87.33202 | 19549 ft | 365 kts | 81° |
| 2026-05-05 21:43 | 42.08495 | -87.29819 | 20126 ft | 369 kts | 81° |
| 2026-05-05 21:44 | 42.08896 | -87.26407 | 20688 ft | 372 kts | 81° |
| 2026-05-05 21:44 | 42.09300 | -87.22956 | 21237 ft | 375 kts | 81° |
| 2026-05-05 21:44 | 42.09706 | -87.19486 | 21771 ft | 378 kts | 81° |
| 2026-05-05 21:44 | 42.10116 | -87.15978 | 22293 ft | 381 kts | 81° |
| 2026-05-05 21:45 | 42.10525 | -87.12470 | 22798 ft | 384 kts | 81° |
| 2026-05-05 21:45 | 42.10940 | -87.08885 | 23296 ft | 387 kts | 82° |
| 2026-05-05 21:45 | 42.11261 | -87.05302 | 23779 ft | 390 kts | 85° |
| 2026-05-05 21:45 | 42.11443 | -87.01688 | 24246 ft | 393 kts | 86° |
| 2026-05-05 21:46 | 42.11586 | -86.98073 | 24699 ft | 395 kts | 87° |
| 2026-05-05 21:46 | 42.11724 | -86.94364 | 25143 ft | 398 kts | 87° |
| 2026-05-05 21:46 | 42.11860 | -86.90654 | 25574 ft | 401 kts | 87° |
| 2026-05-05 21:46 | 42.11995 | -86.86929 | 25996 ft | 404 kts | 87° |
| 2026-05-05 21:47 | 42.12132 | -86.83131 | 26413 ft | 406 kts | 87° |
| 2026-05-05 21:47 | 42.12268 | -86.79297 | 26820 ft | 409 kts | 87° |
| 2026-05-05 21:47 | 42.12403 | -86.75499 | 27210 ft | 411 kts | 87° |
| 2026-05-05 21:47 | 42.12538 | -86.71672 | 27591 ft | 414 kts | 87° |
| 2026-05-05 21:48 | 42.12674 | -86.67771 | 27967 ft | 416 kts | 87° |
| 2026-05-05 21:48 | 42.12807 | -86.63900 | 28329 ft | 419 kts | 87° |
| 2026-05-05 21:48 | 42.12941 | -86.59972 | 28685 ft | 421 kts | 87° |
| 2026-05-05 21:48 | 42.13074 | -86.56022 | 29032 ft | 423 kts | 87° |
| 2026-05-05 21:49 | 42.13207 | -86.52048 | 29374 ft | 425 kts | 87° |
| 2026-05-05 21:49 | 42.13338 | -86.48052 | 29704 ft | 428 kts | 87° |
| 2026-05-05 21:49 | 42.13467 | -86.44096 | 30021 ft | 430 kts | 87° |
| 2026-05-05 21:49 | 42.13598 | -86.40053 | 30337 ft | 432 kts | 87° |
| 2026-05-05 21:50 | 42.13726 | -86.36009 | 30645 ft | 434 kts | 87° |
| 2026-05-05 21:50 | 42.13853 | -86.31941 | 30945 ft | 436 kts | 88° |
| 2026-05-05 21:50 | 42.13979 | -86.27866 | 31237 ft | 438 kts | 88° |
| 2026-05-05 21:50 | 42.14103 | -86.23762 | 31576 ft | 439 kts | 88° |
| 2026-05-05 21:51 | 42.14225 | -86.19707 | 31982 ft | 437 kts | 88° |
| 2026-05-05 21:51 | 42.14349 | -86.15572 | 32389 ft | 436 kts | 88° |
| 2026-05-05 21:51 | 42.14441 | -86.11502 | 32761 ft | 435 kts | 90° |
| 2026-05-05 21:51 | 42.14441 | -86.07455 | 33116 ft | 435 kts | 90° |
| 2026-05-05 21:52 | 42.14396 | -85.99336 | 33799 ft | 433 kts | 90° |
| 2026-05-05 21:52 | 42.14368 | -85.95292 | 34128 ft | 433 kts | 90° |
| 2026-05-05 21:52 | 42.14338 | -85.91264 | 34448 ft | 432 kts | 90° |
| 2026-05-05 21:53 | 42.14308 | -85.87235 | 34759 ft | 431 kts | 90° |
| 2026-05-05 21:53 | 42.14276 | -85.83197 | 35062 ft | 431 kts | 90° |
| 2026-05-05 21:53 | 42.14243 | -85.79200 | 35353 ft | 430 kts | 90° |
| 2026-05-05 21:53 | 42.14209 | -85.75201 | 35633 ft | 430 kts | 90° |
| 2026-05-05 21:54 | 42.14173 | -85.71147 | 35906 ft | 429 kts | 90° |
| 2026-05-05 21:54 | 42.14136 | -85.67158 | 36166 ft | 429 kts | 90° |
| 2026-05-05 21:54 | 42.14098 | -85.63168 | 36411 ft | 428 kts | 90° |
| 2026-05-05 21:54 | 42.14058 | -85.59158 | 36640 ft | 428 kts | 90° |
| 2026-05-05 21:55 | 42.14017 | -85.55164 | 36854 ft | 428 kts | 90° |
| 2026-05-05 21:55 | 42.13974 | -85.51174 | 37058 ft | 428 kts | 90° |
| 2026-05-05 21:55 | 42.13930 | -85.47154 | 37261 ft | 428 kts | 90° |
| 2026-05-05 21:55 | 42.13885 | -85.43165 | 37459 ft | 428 kts | 90° |
| 2026-05-05 21:56 | 42.13837 | -85.39124 | 37651 ft | 428 kts | 90° |
| 2026-05-05 21:56 | 42.13789 | -85.35155 | 37834 ft | 428 kts | 90° |
| 2026-05-05 21:56 | 42.13740 | -85.31247 | 38008 ft | 428 kts | 91° |
| 2026-05-05 21:56 | 42.13689 | -85.27295 | 38178 ft | 428 kts | 91° |
| 2026-05-05 21:57 | 42.13635 | -85.23247 | 38345 ft | 428 kts | 91° |
| 2026-05-05 21:57 | 42.13580 | -85.19284 | 38500 ft | 428 kts | 91° |
| 2026-05-05 21:57 | 42.13524 | -85.15277 | 38651 ft | 428 kts | 91° |
| 2026-05-05 21:57 | 42.13465 | -85.11271 | 38801 ft | 428 kts | 91° |
| 2026-05-05 21:58 | 42.13406 | -85.07250 | 38946 ft | 428 kts | 91° |
| 2026-05-05 21:58 | 42.13284 | -84.99218 | 38977 ft | 435 kts | 91° |
| 2026-05-05 21:59 | 42.13145 | -84.91008 | 38978 ft | 440 kts | 91° |
| 2026-05-05 21:59 | 42.12995 | -84.82825 | 38978 ft | 440 kts | 91° |
| 2026-05-05 22:00 | 42.12836 | -84.74573 | 38978 ft | 440 kts | 91° |
| 2026-05-05 22:00 | 42.12670 | -84.66364 | 38978 ft | 440 kts | 91° |
| 2026-05-05 22:01 | 42.12497 | -84.58145 | 38978 ft | 440 kts | 91° |
| 2026-05-05 22:01 | 42.12400 | -84.49931 | 38978 ft | 440 kts | 88° |
| 2026-05-05 22:02 | 42.12899 | -84.41698 | 38977 ft | 440 kts | 81° |
| 2026-05-05 22:02 | 42.13812 | -84.33566 | 38978 ft | 440 kts | 81° |
| 2026-05-05 22:03 | 42.14729 | -84.25475 | 38978 ft | 440 kts | 82° |
| 2026-05-05 22:03 | 42.15635 | -84.17355 | 38978 ft | 440 kts | 82° |
| 2026-05-05 22:04 | 42.16538 | -84.09187 | 38978 ft | 440 kts | 82° |
| 2026-05-05 22:04 | 42.17431 | -84.01052 | 38978 ft | 440 kts | 82° |
| 2026-05-05 22:05 | 42.18316 | -83.92932 | 38978 ft | 440 kts | 82° |
| 2026-05-05 22:05 | 42.19196 | -83.84800 | 38978 ft | 440 kts | 82° |
| 2026-05-05 22:06 | 42.20070 | -83.76665 | 38978 ft | 440 kts | 82° |
| 2026-05-05 22:06 | 42.20943 | -83.68477 | 38978 ft | 440 kts | 82° |
| 2026-05-05 22:07 | 42.21801 | -83.60341 | 38978 ft | 440 kts | 82° |
| 2026-05-05 22:07 | 42.22651 | -83.52242 | 38978 ft | 440 kts | 82° |
| 2026-05-05 22:08 | 42.23674 | -83.44117 | 38978 ft | 440 kts | 79° |
| 2026-05-05 22:08 | 42.24822 | -83.36010 | 38978 ft | 440 kts | 79° |
| 2026-05-05 22:09 | 42.25939 | -83.28030 | 38978 ft | 440 kts | 79° |
| 2026-05-05 22:09 | 42.27042 | -83.20062 | 38978 ft | 440 kts | 79° |
| 2026-05-05 22:10 | 42.28158 | -83.11964 | 38978 ft | 440 kts | 79° |
| 2026-05-05 22:10 | 42.29265 | -83.03887 | 38978 ft | 440 kts | 79° |
| 2026-05-05 22:11 | 42.30368 | -82.95794 | 38978 ft | 440 kts | 79° |
| 2026-05-05 22:11 | 42.31463 | -82.87714 | 38978 ft | 440 kts | 79° |
| 2026-05-05 22:12 | 42.32564 | -82.79549 | 38978 ft | 440 kts | 79° |
| 2026-05-05 22:12 | 42.33651 | -82.71433 | 38978 ft | 440 kts | 79° |
| 2026-05-05 22:13 | 42.34726 | -82.63374 | 38978 ft | 440 kts | 79° |
| 2026-05-05 22:13 | 42.35808 | -82.55209 | 38978 ft | 440 kts | 79° |
| 2026-05-05 22:14 | 42.36872 | -82.47128 | 38978 ft | 440 kts | 79° |
| 2026-05-05 22:14 | 42.37940 | -82.38974 | 38978 ft | 440 kts | 79° |
| 2026-05-05 22:15 | 42.38995 | -82.30866 | 38978 ft | 440 kts | 80° |
| 2026-05-05 22:15 | 42.40004 | -82.23042 | 38978 ft | 440 kts | 80° |
| 2026-05-05 22:16 | 42.41054 | -82.14867 | 38978 ft | 440 kts | 80° |
| 2026-05-05 22:16 | 42.42088 | -82.06781 | 38978 ft | 440 kts | 80° |
| 2026-05-05 22:17 | 42.43107 | -81.98759 | 38978 ft | 440 kts | 80° |
| 2026-05-05 22:17 | 42.44134 | -81.90614 | 38978 ft | 440 kts | 80° |
| 2026-05-05 22:18 | 42.45162 | -81.82424 | 38978 ft | 440 kts | 80° |
| 2026-05-05 22:18 | 42.45922 | -81.74286 | 38963 ft | 440 kts | 86° |
| 2026-05-05 22:18 | 42.46048 | -81.70174 | 38634 ft | 434 kts | 89° |
| 2026-05-05 22:19 | 42.45989 | -81.66090 | 38206 ft | 429 kts | 92° |
| 2026-05-05 22:19 | 42.45893 | -81.63572 | 37916 ft | 429 kts | 98° |
| 2026-05-05 22:19 | 42.45708 | -81.59549 | 37505 ft | 443 kts | 99° |
| 2026-05-05 22:19 | 42.45478 | -81.55319 | 37036 ft | 451 kts | 99° |
| 2026-05-05 22:20 | 42.45249 | -81.51080 | 36510 ft | 452 kts | 99° |
| 2026-05-05 22:20 | 42.45026 | -81.46839 | 35986 ft | 453 kts | 99° |
| 2026-05-05 22:20 | 42.44810 | -81.42609 | 35461 ft | 452 kts | 99° |
| 2026-05-05 22:20 | 42.44599 | -81.38413 | 34938 ft | 452 kts | 99° |
| 2026-05-05 22:21 | 42.44383 | -81.34170 | 34408 ft | 454 kts | 99° |
| 2026-05-05 22:21 | 42.44164 | -81.29888 | 33879 ft | 454 kts | 100° |
| 2026-05-05 22:21 | 42.43947 | -81.25658 | 33355 ft | 454 kts | 99° |
| 2026-05-05 22:21 | 42.43725 | -81.21413 | 32835 ft | 454 kts | 99° |
| 2026-05-05 22:22 | 42.43499 | -81.17164 | 32307 ft | 456 kts | 99° |
| 2026-05-05 22:22 | 42.43272 | -81.12877 | 31781 ft | 456 kts | 99° |
| 2026-05-05 22:22 | 42.43048 | -81.08632 | 31259 ft | 458 kts | 99° |
| 2026-05-05 22:22 | 42.42927 | -81.04305 | 30731 ft | 460 kts | 96° |
| 2026-05-05 22:23 | 42.43003 | -80.99993 | 30205 ft | 460 kts | 92° |
| 2026-05-05 22:23 | 42.43176 | -80.95716 | 29749 ft | 459 kts | 92° |
| 2026-05-05 22:23 | 42.43368 | -80.91408 | 29271 ft | 456 kts | 92° |
| 2026-05-05 22:23 | 42.43560 | -80.87163 | 28796 ft | 452 kts | 92° |
| 2026-05-05 22:24 | 42.43741 | -80.82942 | 28320 ft | 447 kts | 92° |
| 2026-05-05 22:24 | 42.43915 | -80.78777 | 27846 ft | 443 kts | 92° |
| 2026-05-05 22:24 | 42.44086 | -80.74599 | 27366 ft | 440 kts | 92° |
| 2026-05-05 22:24 | 42.44250 | -80.70508 | 26890 ft | 436 kts | 92° |
| 2026-05-05 22:25 | 42.44411 | -80.66457 | 26418 ft | 433 kts | 92° |
| 2026-05-05 22:25 | 42.44571 | -80.62378 | 25936 ft | 430 kts | 92° |
| 2026-05-05 22:25 | 42.44726 | -80.58369 | 25463 ft | 427 kts | 92° |
| 2026-05-05 22:25 | 42.44877 | -80.54424 | 24994 ft | 424 kts | 92° |
| 2026-05-05 22:26 | 42.45029 | -80.50413 | 24511 ft | 421 kts | 92° |
| 2026-05-05 22:26 | 42.45177 | -80.46501 | 24039 ft | 419 kts | 92° |
| 2026-05-05 22:26 | 42.45324 | -80.42558 | 23559 ft | 416 kts | 92° |
| 2026-05-05 22:26 | 42.45468 | -80.38673 | 23084 ft | 413 kts | 92° |
| 2026-05-05 22:27 | 42.45611 | -80.34798 | 22608 ft | 411 kts | 92° |
| 2026-05-05 22:27 | 42.45750 | -80.31010 | 22137 ft | 408 kts | 92° |
| 2026-05-05 22:27 | 42.45892 | -80.27136 | 21654 ft | 406 kts | 92° |
| 2026-05-05 22:27 | 42.46027 | -80.23370 | 21184 ft | 403 kts | 92° |
| 2026-05-05 22:28 | 42.46161 | -80.19577 | 20705 ft | 401 kts | 92° |
| 2026-05-05 22:28 | 42.46291 | -80.15858 | 20233 ft | 398 kts | 92° |
| 2026-05-05 22:28 | 42.46422 | -80.12109 | 19755 ft | 396 kts | 92° |
| 2026-05-05 22:28 | 42.46550 | -80.08425 | 19281 ft | 393 kts | 92° |
| 2026-05-05 22:29 | 42.46676 | -80.04753 | 18807 ft | 391 kts | 92° |
| 2026-05-05 22:29 | 42.46800 | -80.01104 | 18333 ft | 388 kts | 92° |
| 2026-05-05 22:29 | 42.46922 | -79.97449 | 17855 ft | 386 kts | 92° |
| 2026-05-05 22:29 | 42.47041 | -79.93876 | 17385 ft | 384 kts | 92° |
| 2026-05-05 22:30 | 42.47159 | -79.90269 | 16908 ft | 381 kts | 92° |
| 2026-05-05 22:30 | 42.47275 | -79.86702 | 16433 ft | 379 kts | 91° |
| 2026-05-05 22:30 | 42.47389 | -79.83169 | 15960 ft | 377 kts | 91° |
| 2026-05-05 22:30 | 42.47502 | -79.79649 | 15485 ft | 375 kts | 91° |
| 2026-05-05 22:31 | 42.47614 | -79.76121 | 15155 ft | 371 kts | 91° |
| 2026-05-05 22:31 | 42.47723 | -79.72649 | 14905 ft | 370 kts | 91° |
| 2026-05-05 22:31 | 42.47831 | -79.69206 | 14653 ft | 362 kts | 91° |
| 2026-05-05 22:31 | 42.47936 | -79.65852 | 14406 ft | 356 kts | 91° |
| 2026-05-05 22:32 | 42.48037 | -79.62513 | 14156 ft | 355 kts | 91° |
| 2026-05-05 22:32 | 42.48136 | -79.59200 | 13907 ft | 353 kts | 91° |
| 2026-05-05 22:32 | 42.48231 | -79.55961 | 13604 ft | 351 kts | 91° |
| 2026-05-05 22:32 | 42.48328 | -79.52688 | 13278 ft | 346 kts | 91° |
| 2026-05-05 22:33 | 42.48423 | -79.49471 | 12954 ft | 341 kts | 91° |
| 2026-05-05 22:33 | 42.48515 | -79.46287 | 12630 ft | 336 kts | 91° |
| 2026-05-05 22:33 | 42.48605 | -79.43132 | 12303 ft | 332 kts | 91° |
| 2026-05-05 22:33 | 42.48692 | -79.40049 | 11979 ft | 328 kts | 91° |
| 2026-05-05 22:34 | 42.48779 | -79.36967 | 11652 ft | 324 kts | 91° |
| 2026-05-05 22:34 | 42.48861 | -79.33978 | 11330 ft | 320 kts | 92° |
| 2026-05-05 22:34 | 42.48944 | -79.30995 | 11005 ft | 316 kts | 91° |
| 2026-05-05 22:34 | 42.49296 | -79.28049 | 10670 ft | 317 kts | 75° |
| 2026-05-05 22:35 | 42.50265 | -79.25363 | 10383 ft | 316 kts | 56° |
| 2026-05-05 22:35 | 42.51622 | -79.23078 | 10165 ft | 313 kts | 50° |
| 2026-05-05 22:35 | 42.53058 | -79.20902 | 9925 ft | 312 kts | 48° |
| 2026-05-05 22:35 | 42.54520 | -79.18710 | 9798 ft | 311 kts | 49° |
| 2026-05-05 22:36 | 42.55953 | -79.16540 | 9682 ft | 310 kts | 49° |
| 2026-05-05 22:36 | 42.57390 | -79.14335 | 9601 ft | 310 kts | 49° |
| 2026-05-05 22:36 | 42.58806 | -79.12141 | 9517 ft | 310 kts | 49° |
| 2026-05-05 22:36 | 42.60210 | -79.09952 | 9416 ft | 309 kts | 49° |
| 2026-05-05 22:37 | 42.61618 | -79.07753 | 9310 ft | 309 kts | 49° |
| 2026-05-05 22:37 | 42.63038 | -79.05530 | 9163 ft | 308 kts | 49° |
| 2026-05-05 22:37 | 42.64437 | -79.03333 | 9003 ft | 307 kts | 49° |
| 2026-05-05 22:37 | 42.65807 | -79.01180 | 8836 ft | 306 kts | 49° |
| 2026-05-05 22:38 | 42.67179 | -78.99023 | 8646 ft | 306 kts | 49° |
| 2026-05-05 22:38 | 42.68552 | -78.96861 | 8372 ft | 305 kts | 48° |
| 2026-05-05 22:38 | 42.69936 | -78.94682 | 8089 ft | 303 kts | 47° |
| 2026-05-05 22:38 | 42.71305 | -78.92526 | 7782 ft | 302 kts | 47° |
| 2026-05-05 22:39 | 42.72657 | -78.90398 | 7448 ft | 300 kts | 47° |
| 2026-05-05 22:39 | 42.74009 | -78.88268 | 7146 ft | 297 kts | 47° |
| 2026-05-05 22:39 | 42.75348 | -78.86157 | 6845 ft | 293 kts | 47° |
| 2026-05-05 22:39 | 42.76664 | -78.84081 | 6546 ft | 291 kts | 47° |
| 2026-05-05 22:40 | 42.77982 | -78.81998 | 6245 ft | 288 kts | 47° |
| 2026-05-05 22:40 | 42.79284 | -78.79939 | 5947 ft | 286 kts | 47° |
| 2026-05-05 22:40 | 42.80569 | -78.77904 | 5668 ft | 283 kts | 47° |
| 2026-05-05 22:40 | 42.81838 | -78.75895 | 5422 ft | 279 kts | 46° |
| 2026-05-05 22:41 | 42.83081 | -78.73923 | 5196 ft | 273 kts | 46° |
| 2026-05-05 22:41 | 42.84320 | -78.71956 | 4941 ft | 269 kts | 46° |
| 2026-05-05 22:41 | 42.85525 | -78.70044 | 4688 ft | 264 kts | 46° |
| 2026-05-05 22:41 | 42.86699 | -78.68181 | 4265 ft | 254 kts | 46° |
| 2026-05-05 22:42 | 42.87826 | -78.66390 | 4014 ft | 246 kts | 46° |
| 2026-05-05 22:42 | 42.88907 | -78.64726 | 3992 ft | 227 kts | 43° |
| 2026-05-05 22:42 | 42.90031 | -78.63209 | 3992 ft | 226 kts | 40° |
| 2026-05-05 22:42 | 42.91139 | -78.61757 | 3983 ft | 214 kts | 40° |
| 2026-05-05 22:43 | 42.92172 | -78.60400 | 3983 ft | 194 kts | 39° |
| 2026-05-05 22:43 | 42.93146 | -78.59247 | 3880 ft | 181 kts | 29° |
| 2026-05-05 22:43 | 42.94250 | -78.58536 | 3657 ft | 172 kts | 11° |
| 2026-05-05 22:43 | 42.95392 | -78.58309 | 3444 ft | 164 kts | 355° |
| 2026-05-05 22:44 | 42.96497 | -78.58517 | 3237 ft | 156 kts | 340° |
| 2026-05-05 22:44 | 42.97454 | -78.59061 | 3069 ft | 142 kts | 327° |
| 2026-05-05 22:44 | 42.98236 | -78.59832 | 2960 ft | 138 kts | 316° |
| 2026-05-05 22:44 | 42.98871 | -78.60806 | 2810 ft | 138 kts | 304° |
| 2026-05-05 22:45 | 42.99337 | -78.61954 | 2593 ft | 140 kts | 292° |
| 2026-05-05 22:45 | 42.99558 | -78.63213 | 2349 ft | 137 kts | 277° |
| 2026-05-05 22:45 | 42.99514 | -78.64511 | 2167 ft | 137 kts | 262° |
| 2026-05-05 22:45 | 42.99210 | -78.65743 | 1981 ft | 136 kts | 246° |
| 2026-05-05 22:46 | 42.98681 | -78.66802 | 1765 ft | 136 kts | 232° |
| 2026-05-05 22:46 | 42.98018 | -78.67691 | 1614 ft | 134 kts | 226° |
| 2026-05-05 22:46 | 42.97339 | -78.68578 | 1462 ft | 134 kts | 228° |
| 2026-05-05 22:46 | 42.96688 | -78.69472 | 1272 ft | 133 kts | 229° |
| 2026-05-05 22:47 | 42.96024 | -78.70355 | 1121 ft | 133 kts | 227° |
| 2026-05-05 22:47 | 42.95359 | -78.71227 | 949 ft | 133 kts | 227° |
| 2026-05-05 22:47 | 42.94697 | -78.72097 | 770 ft | 132 kts | 226° |
| 2026-05-05 22:47 | 42.94111 | -78.72869 | 733 ft | 83 kts | 224° |
| 2026-05-05 22:48 | 42.93832 | -78.73236 | 733 ft | 35 kts | 224° |
| 2026-05-05 22:48 | 42.93678 | -78.73438 | 733 ft | 30 kts | 223° |
| 2026-05-05 22:48 | 42.93545 | -78.73612 | 733 ft | 19 kts | 225° |
| 2026-05-05 22:48 | 42.93446 | -78.73653 | 733 ft | 13 kts | 179° |
| 2026-05-05 22:49 | 42.93400 | -78.73635 | 733 ft | 2 kts | 127° |
| 2026-05-05 22:49 | 42.93388 | -78.73601 | 732 ft | 3 kts | 114° |
| 2026-05-05 22:49 | 42.93374 | -78.73560 | 733 ft | 6 kts | 112° |
| 2026-05-05 22:49 | 42.93391 | -78.73495 | 733 ft | 9 kts | 45° |
| 2026-05-05 22:50 | 42.93449 | -78.73419 | 733 ft | 13 kts | 43° |
| 2026-05-05 22:50 | 42.93492 | -78.73362 | 733 ft | 2 kts | 44° |
| 2026-05-05 22:50 | 42.93513 | -78.73334 | 733 ft | 2 kts | 44° |
| 2026-05-05 22:50 | 42.93525 | -78.73319 | 733 ft | 4 kts | 44° |
| 2026-05-05 22:51 | 42.93556 | -78.73277 | 733 ft | 8 kts | 44° |
| 2026-05-05 22:51 | 42.93605 | -78.73213 | 733 ft | 8 kts | 43° |
| 2026-05-05 22:51 | 42.93626 | -78.73177 | 733 ft | 1 kts | 102° |
| 2026-05-05 22:51 | 42.93607 | -78.73163 | 733 ft | 5 kts | 154° |
| 2026-05-05 22:52 | 42.93574 | -78.73142 | 733 ft | 3 kts | 155° |
| 2026-05-05 22:52 | 42.93570 | -78.73139 | 733 ft | 0 kts | 155° |